此METAR来自2022年8月16日 02:20. 最近的
罗盘
风向 的 Norden-Norddeich Airport 16/34
风: 0 kt, 0 beaufort


改变
0 5.000 10.000 15.000 20.000
BKN 9.400 ft
OVC 17.000 ft
METAR EDWE 160020Z AUTO 00000KT 9999 // BKN094/// OVC170/// 18/18 Q1005

METAR Norden-Norddeich Airport - EDWS/NOD

Norden-Norddeich Airport是Norddeich,德国中的小机场。 该机场有一条跑道: 16/34. 该领域的国际民航组织标志是EDWS 它的国际航空运输协会代码是NOD.

这份报告是针对2022年8月16日 02:20, 当地时间在Emden Airport进行的。

机场观察

可变方向的风很小或没有风。

可见度为10 km 或者更多。

有碎云在9.400 ft的高度 和 乌云密布在17.000 ft的高度。 破损或更高的上限为9.400 ft。

温度和风寒是18 °C。 露点为18 °C,相对湿度为100%。 海平面上的气压为1005 hPa (QNH)。

白天

今天,太阳从07:27升起,在19:16降落。 这适用于Norden-Norddeich Airport,世界夏令时可能有所不同。 当地时间与世界标准时间之间的时差为+2 小时。 夏令时目前正在进行中。

公司介绍

我们没有关于这个机场的公司信息。

体会

到Vliegles.nl去找飞行课程,跳伞和其他飞行体验。 浏览页面,了解Norden-Norddeich Airport附近所有可用的活动。 你也可以使用搜索功能来寻找你所在地附近的特定飞行课程、跳伞或其他飞行体验。

跑道

Id 标题 侧风 逆风 侧风 %
16/34 159°-339°

逆风成分最大的方向会被突出显示,并用于横风计算。 这并不一定意味着这个方向在使用。

乌云

9.400 ft BKN 碎云
17.000 ft OVC 乌云密布

温度 & 天气

温度 18 °C
露点 18 °C
相对湿度 100%
Kp-index 1 (0-9)

白天

日出
06:12
中午
13:35
日落
20:57

小工具

你想在你的网站上有一个关于Norden-Norddeich Airport的当前航空天气(METAR)的小部件吗?

</> 显示HTML代码

我们和第三方通过cookies跟踪您在我们网站上的上网行为。如果您继续,我们认为您同意我们的cookie政策。 了解更多